Latest Weather Observations for Goulburn Airport

IDN60801

Issued at 2:32 pm EDT Saturday 25 March 2017 (issued every 30 minutes, with the page automatically refreshed every 10 minutes)

About weather observations | Map of weather stations | Latest weather observations for NSW | Other Formats
Station Details ID: 070330 Name: GOULBURN AIRPORT AWS Lat: -34.81 Lon: 149.73 Height: 640.0 m
Data from the previous 72 hours. | See also: Recent months at Goulburn Airport
Date/Time
EDT
Temp
°C
App
Temp
°C
Dew
Point
°C
Rel
Hum
%
Delta-T
°C
Wind Press
QNH
hPa
Press
MSL
hPa
Rain since
9am
mm
Dir  Spd
km/h
Gust
km/h
Spd
kts
Gust
kts
25/02:30pm 16.6 18.2 14.8 89 1.1 CALM 0 0 0 0 1016.4 1014.4 0.2
25/02:12pm 16.5 17.3 14.7 89 1.1 NE 4 9 2 5 1016.6 1014.6 0.2
25/02:00pm 16.3 17.7 14.5 89 1.1 CALM 0 0 0 0 1016.7 1014.7 0.2
25/01:47pm 16.7 18.4 15.1 90 1.0 CALM 0 0 0 0 1016.8 1014.8 0.2
25/01:30pm 16.3 17.7 14.5 89 1.1 CALM 0 0 0 0 1016.9 1014.9 0.2
25/01:00pm 16.6 17.9 14.2 86 1.4 CALM 0 0 0 0 1017.5 1015.5 0.2
25/12:30pm 16.9 16.8 14.0 83 1.7 WNW 7 7 4 4 1018.1 1016.2 0.0
25/12:08pm 17.8 17.2 13.5 76 2.5 WNW 9 13 5 7 1018.4 1016.4 0.0
25/12:00pm 18.0 17.6 12.9 72 2.9 NNW 7 13 4 7 1018.5 1016.5 0.0
25/11:56am 18.2 18.2 13.5 74 2.7 N 6 13 3 7 1018.5 1016.5 0.0
25/11:30am 18.7 18.6 13.8 73 2.9 NNE 7 15 4 8 1018.1 1016.2 0.0
25/11:00am 18.0 18.0 13.5 75 2.6 NNE 6 13 3 7 1018.6 1016.6 0.0
25/10:34am 16.7 16.8 12.8 78 2.2 ENE 4 9 2 5 1018.7 1016.7 0.0
25/10:30am 16.6 17.5 12.9 79 2.1 CALM 0 9 0 5 1018.7 1016.7 0.0
25/10:00am 16.1 15.7 13.0 82 1.8 ENE 7 13 4 7 1018.7 1016.7 0.0
25/09:30am 15.7 14.9 12.8 83 1.7 NE 9 13 5 7 1018.7 1016.7 0.0
25/09:00am 15.8 15.2 13.5 86 1.3 NE 9 11 5 6 1018.5 1016.5 14.4
25/08:30am 14.9 14.1 12.9 88 1.1 ENE 9 11 5 6 1018.5 1016.5 14.4
25/08:00am 14.1 14.6 12.7 91 0.8 NE 2 6 1 3 1018.5 1016.5 14.4
25/07:30am 13.7 14.0 12.3 91 0.8 NNE 2 7 1 4 1018.5 1016.5 14.4
25/07:00am 13.9 13.4 12.5 91 0.8 NE 7 9 4 5 1018.3 1016.3 14.4
25/06:30am 13.8 13.2 12.4 91 0.8 NE 7 9 4 5 1018.1 1016.2 14.4
25/06:29am 13.8 13.2 12.4 91 0.8 NE 7 11 4 6 1018.1 1016.2 14.4
25/06:20am 13.8 12.4 12.2 90 0.9 NE 11 15 6 8 1018.0 1016.1 14.4
25/06:00am 13.9 12.9 12.3 90 0.9 NE 9 13 5 7 1018.0 1016.1 14.4
25/05:50am 14.0 12.2 12.2 89 1.0 NE 13 17 7 9 1018.1 1016.2 14.4
25/05:30am 14.2 12.9 12.4 89 1.0 ENE 11 15 6 8 1018.3 1016.3 14.4
25/05:00am 14.4 13.5 12.6 89 1.0 ENE 9 13 5 7 1018.7 1016.7 14.4
25/04:30am 14.4 13.1 12.6 89 1.0 ENE 11 15 6 8 1018.5 1016.5 14.4
25/04:00am 14.6 12.9 12.6 88 1.1 ENE 13 17 7 9 1018.6 1016.6 14.4
25/03:30am 14.6 13.3 12.6 88 1.1 NE 11 15 6 8 1018.8 1016.8 14.4
25/03:00am 14.6 13.8 12.8 89 1.0 NE 9 13 5 7 1019.1 1017.1 14.4
25/02:55am 14.6 13.7 12.6 88 1.1 ENE 9 13 5 7 1019.1 1017.1 14.4
25/02:30am 14.7 13.5 12.7 88 1.1 ENE 11 15 6 8 1019.3 1017.4 14.4
25/02:00am 14.7 13.8 12.7 88 1.1 ENE 9 11 5 6 1019.9 1017.9 14.4
25/01:30am 14.7 13.1 12.7 88 1.1 ENE 13 17 7 9 1020.0 1018.0 14.4
25/01:00am 14.7 13.1 12.7 88 1.1 ENE 13 19 7 10 1020.3 1018.3 14.4
25/12:30am 14.6 13.5 13.0 90 0.9 ENE 11 15 6 8 1020.5 1018.5 14.4
25/12:00am 14.4 12.8 12.8 90 0.9 ENE 13 19 7 10 1020.9 1019.0 14.4
 
Date/Time
EDT
Temp
°C
App
Temp
°C
Dew
Point
°C
Rel
Hum
%
Delta-T
°C
Wind Press
QNH
hPa
Press
MSL
hPa
Rain since
9am
mm
Dir  Spd
km/h
Gust
km/h
Spd
kts
Gust
kts
24/11:30pm 14.5 13.0 13.0 91 0.9 E 13 19 7 10 1021.6 1019.6 14.4
24/11:00pm 14.6 12.7 13.1 91 0.9 E 15 20 8 11 1021.3 1019.4 14.4
24/10:30pm 14.6 13.2 13.3 92 0.7 ESE 13 19 7 10 1021.8 1019.8 14.4
24/10:00pm 14.6 12.7 13.0 90 0.9 E 15 20 8 11 1021.6 1019.6 14.4
24/09:48pm 14.6 12.7 13.0 90 0.9 E 15 20 8 11 1021.4 1019.5 14.4
24/09:47pm 14.6 12.7 13.0 90 0.9 E 15 19 8 10 1021.6 1019.6 14.4
24/09:30pm 14.6 13.5 13.1 91 0.9 E 11 15 6 8 1021.4 1019.5 14.4
24/09:00pm 14.6 12.3 13.1 91 0.9 E 17 22 9 12 1021.3 1019.4 14.4
24/08:30pm 14.5 12.8 13.5 94 0.6 E 15 20 8 11 1021.1 1019.2 14.4
24/08:00pm 14.9 12.3 13.1 89 1.0 E 19 26 10 14 1020.8 1018.9 14.4
24/07:30pm 15.7 13.5 13.4 86 1.3 ENE 17 22 9 12 1020.6 1018.6 14.4
24/07:00pm 15.6 14.2 13.3 86 1.3 E 13 17 7 9 1020.8 1018.9 14.4
24/06:53pm 15.6 13.7 12.9 84 1.5 E 15 20 8 11 1020.7 1018.8 14.4
24/06:30pm 16.2 14.0 13.3 83 1.7 E 17 24 9 13 1020.5 1018.5 14.4
24/06:00pm 17.5 14.9 13.2 76 2.5 E 19 26 10 14 1020.2 1018.2 14.4
24/05:30pm 17.9 14.5 12.6 71 3.0 E 22 30 12 16 1020.1 1018.1 14.4
24/05:00pm 17.7 14.5 13.2 75 2.6 E 22 30 12 16 1020.2 1018.2 14.4
24/04:30pm 19.1 15.6 13.5 70 3.3 E 24 33 13 18 1020.0 1018.0 14.4
24/04:00pm 20.3 16.8 13.3 64 4.1 E 24 30 13 16 1020.1 1018.1 13.0
24/03:30pm 18.9 15.9 13.7 72 3.1 ESE 22 32 12 17 1020.5 1018.5 10.8
24/03:00pm 19.6 17.0 13.8 69 3.4 SE 20 24 11 13 1020.8 1018.9 8.2
24/02:30pm 19.9 17.1 13.1 65 4.0 ESE 20 28 11 15 1020.9 1019.0 5.2
24/02:00pm 19.8 17.4 12.6 63 4.2 E 17 24 9 13 1021.2 1019.3 1.8
24/01:30pm 18.1 16.0 12.5 70 3.2 ESE 15 19 8 10 1021.7 1019.7 0.2
24/01:00pm 17.7 15.2 12.4 71 3.0 E 17 22 9 12 1022.1 1020.2 0.2
24/12:30pm 17.4 15.3 12.3 72 2.9 ESE 15 22 8 12 1022.5 1020.6 0.2
24/12:00pm 17.1 14.6 12.4 74 2.7 E 17 20 9 11 1022.6 1020.7 0.2
24/11:38am 16.7 14.3 12.5 76 2.4 ESE 17 24 9 13 1022.7 1020.8 0.0
24/11:30am 16.5 13.5 12.5 77 2.3 ESE 20 26 11 14 1022.8 1020.9 0.0
24/11:21am 16.3 13.2 12.3 77 2.3 ESE 20 28 11 15 1022.8 1020.9 0.0
24/11:00am 16.7 14.0 13.0 79 2.1 ESE 19 24 10 13 1022.8 1020.9 0.0
24/10:33am 16.1 13.1 12.7 80 1.9 ESE 20 28 11 15 1022.9 1021.0 0.0
24/10:30am 16.0 13.2 12.7 81 1.9 ESE 19 26 10 14 1022.9 1021.0 0.0
24/10:00am 15.5 13.2 13.0 85 1.4 SE 17 24 9 13 1022.7 1020.8 0.0
24/09:30am 15.2 13.4 13.2 88 1.1 SE 15 20 8 11 1022.4 1020.5 0.0
24/09:00am 14.8 13.0 13.2 90 0.9 ESE 15 19 8 10 1022.4 1020.5 1.2
24/08:30am 14.6 12.8 13.3 92 0.7 ESE 15 20 8 11 1022.2 1020.3 1.2
24/08:00am 14.2 11.9 12.9 92 0.7 ESE 17 24 9 13 1021.9 1019.9 1.2
24/07:30am 14.2 11.9 13.1 93 0.6 ESE 17 22 9 12 1021.6 1019.6 1.0
24/07:00am 13.8 12.6 12.9 94 0.5 ESE 11 17 6 9 1021.6 1019.6 1.0
24/06:30am 14.0 12.5 13.2 95 0.5 SE 13 17 7 9 1021.6 1019.6 1.0
24/06:00am 13.9 12.8 13.1 95 0.5 SE 11 15 6 8 1021.4 1019.5 1.0
24/05:30am 13.7 12.1 12.8 94 0.5 SE 13 17 7 9 1021.1 1019.2 1.0
24/05:00am 14.1 11.8 13.1 94 0.6 ESE 17 24 9 13 1020.9 1019.0 1.0
24/04:30am 14.4 13.1 13.6 95 0.5 SE 13 17 7 9 1020.8 1018.9 1.0
24/04:00am 14.2 12.5 13.6 96 0.3 SE 15 22 8 12 1020.9 1019.0 1.0
24/03:30am 14.4 13.9 13.9 97 0.3 ESE 9 15 5 8 1020.9 1019.0 0.8
24/03:00am 14.3 13.8 13.8 97 0.3 ESE 9 15 5 8 1020.9 1019.0 0.8
24/02:30am 14.4 13.5 13.8 96 0.3 SE 11 15 6 8 1021.2 1019.3 0.8
24/02:00am 14.5 13.6 13.7 95 0.5 SE 11 15 6 8 1021.2 1019.3 0.8
24/01:30am 14.5 13.7 13.9 96 0.3 SE 11 13 6 7 1021.3 1019.4 0.8
24/01:00am 14.5 13.3 13.9 96 0.3 SSE 13 17 7 9 1021.3 1019.4 0.8
24/12:30am 14.6 13.7 13.6 94 0.6 SSE 11 17 6 9 1021.3 1019.4 0.8
24/12:00am 14.7 13.8 13.6 93 0.6 SE 11 13 6 7 1021.6 1019.6 0.8
 
Date/Time
EDT
Temp
°C
App
Temp
°C
Dew
Point
°C
Rel
Hum
%
Delta-T
°C
Wind Press
QNH
hPa
Press
MSL
hPa
Rain since
9am
mm
Dir  Spd
km/h
Gust
km/h
Spd
kts
Gust
kts
23/11:41pm 14.7 13.8 13.6 93 0.6 SE 11 15 6 8 1021.6 1019.6 0.8
23/11:36pm 14.7 13.4 13.6 93 0.6 SE 13 17 7 9 1021.4 1019.5 0.8
23/11:30pm 14.7 13.8 13.6 93 0.6 SE 11 17 6 9 1021.4 1019.5 0.8
23/11:00pm 14.7 14.2 13.7 94 0.6 SE 9 13 5 7 1021.6 1019.6 0.6
23/10:30pm 14.8 14.3 13.7 93 0.6 ESE 9 15 5 8 1021.6 1019.6 0.6
23/10:00pm 14.8 13.5 13.7 93 0.6 SE 13 17 7 9 1021.4 1019.5 0.6
23/09:30pm 14.7 13.4 13.6 93 0.6 SE 13 19 7 10 1021.4 1019.5 0.6
23/09:00pm 14.7 12.6 13.6 93 0.6 SE 17 22 9 12 1021.1 1019.2 0.6
23/08:48pm 14.6 12.1 13.5 93 0.6 SE 19 22 10 12 1021.0 1019.1 0.6
23/08:30pm 14.6 12.5 13.5 93 0.6 SE 17 20 9 11 1020.9 1019.0 0.6
23/08:00pm 14.6 11.5 13.5 93 0.6 SSE 22 28 12 15 1020.6 1018.6 0.6
23/07:44pm 14.8 12.4 13.7 93 0.6 SSE 19 24 10 13 1020.6 1018.6 0.6
23/07:30pm 14.8 12.2 13.7 93 0.6 SSE 20 30 11 16 1020.5 1018.5 0.6
23/07:00pm 15.0 13.5 14.2 95 0.5 SSE 15 20 8 11 1020.2 1018.2 0.4
23/06:43pm 15.0 13.5 14.2 95 0.5 SE 15 20 8 11 1019.9 1017.9 0.4
23/06:30pm 15.0 12.5 14.0 94 0.6 SSE 20 26 11 14 1020.0 1018.0 0.4
23/06:24pm 15.0 12.1 14.0 94 0.6 SSE 22 30 12 16 1020.0 1018.0 0.4
23/06:00pm 15.4 13.6 14.4 94 0.6 SE 17 20 9 11 1019.6 1017.7 0.4
23/05:42pm 15.6 13.8 14.5 93 0.6 SE 17 22 9 12 1019.5 1017.6 0.4
23/05:37pm 15.7 14.0 14.6 93 0.6 SE 17 20 9 11 1019.5 1017.6 0.4
23/05:30pm 15.8 13.7 14.7 93 0.6 SE 19 24 10 13 1019.4 1017.5 0.4
23/05:00pm 15.9 15.0 14.8 93 0.6 ESE 13 19 7 10 1019.7 1017.8 0.4
23/04:30pm 16.1 14.4 14.8 92 0.8 SE 17 24 9 13 1019.2 1017.2 0.4
23/04:00pm 16.4 14.7 14.6 89 1.1 SE 17 20 9 11 1019.7 1017.8 0.4
23/03:36pm 16.5 14.9 14.9 90 1.0 SE 17 24 9 13 1019.6 1017.7 0.4
23/03:30pm 17.0 15.7 15.9 93 0.7 ESE 17 24 9 13 1019.4 1017.5 0.4
23/03:12pm 16.3 14.3 15.0 92 0.8 ESE 19 26 10 14 1019.4 1017.5 0.4
23/03:00pm 16.3 14.8 15.2 93 0.7 ESE 17 22 9 12 1019.7 1017.8 0.2
23/02:30pm 16.6 15.7 14.8 89 1.1 ESE 13 15 7 8 1020.1 1018.1 0.2
23/02:00pm 16.8 15.7 14.3 85 1.5 ESE 13 15 7 8 1020.5 1018.5 0.2
23/01:30pm 17.1 16.2 13.8 81 1.9 ESE 11 13 6 7 1020.8 1018.9 0.2
23/01:00pm 17.2 16.2 13.5 79 2.1 E 11 17 6 9 1021.2 1019.3 0.2
23/12:52pm 17.8 16.3 14.1 79 2.2 ESE 15 22 8 12 1020.9 1019.0 0.2
23/12:46pm 17.8 16.7 14.3 80 2.1 ESE 13 19 7 10 1021.0 1019.1 0.2
23/12:30pm 17.3 15.9 13.4 78 2.3 ESE 13 19 7 10 1021.1 1019.2 0.2
23/12:00pm 16.8 15.4 13.5 81 1.9 ESE 13 17 7 9 1021.8 1019.8 0.2
23/11:40am 16.7 15.5 12.8 78 2.2 ESE 11 17 6 9 1021.7 1019.7 0.2
23/11:30am 16.7 14.9 13.4 81 1.9 ESE 15 19 8 10 1021.7 1019.7 0.2
23/11:22am 16.3 14.4 13.0 81 1.9 ESE 15 20 8 11 1021.8 1019.8 0.0
23/11:00am 16.4 13.8 13.1 81 1.9 SE 19 22 10 12 1021.8 1019.8 0.0
23/10:36am 16.4 15.1 13.7 84 1.6 SE 13 19 7 10 1021.7 1019.7 0.0
23/10:30am 16.3 14.5 13.4 83 1.7 SE 15 19 8 10 1021.8 1019.8 0.0
23/10:00am 16.2 13.8 13.9 86 1.3 SSE 19 24 10 13 1021.4 1019.5 0.0
23/09:34am 15.6 14.3 13.8 89 1.0 SSE 13 20 7 11 1021.4 1019.5 0.0
23/09:30am 15.6 14.0 13.8 89 1.0 SE 15 20 8 11 1021.3 1019.4 0.0
23/09:00am 15.0 13.8 14.0 94 0.6 SSE 13 17 7 9 1021.2 1019.3 1.4
23/08:30am 14.7 13.8 13.6 93 0.6 SE 11 15 6 8 1021.0 1019.1 1.4
23/08:00am 14.8 13.0 13.2 90 0.9 SE 15 20 8 11 1020.8 1018.9 1.4
23/07:30am 15.2 13.7 13.1 87 1.2 SE 13 19 7 10 1020.6 1018.6 1.2
23/07:00am 15.2 13.3 13.1 87 1.2 SE 15 20 8 11 1020.3 1018.3 1.2
23/06:30am 15.2 13.3 13.1 87 1.2 SSE 15 20 8 11 1020.0 1018.0 1.2
23/06:00am 15.2 13.3 13.1 87 1.2 SSE 15 20 8 11 1019.9 1017.9 1.2
23/05:30am 15.1 13.2 13.0 87 1.2 SSE 15 19 8 10 1019.4 1017.5 1.2
23/05:00am 15.0 14.2 12.9 87 1.2 SE 9 17 5 9 1019.5 1017.6 1.2
23/04:42am 15.3 13.0 13.0 86 1.3 SSE 17 22 9 12 1019.2 1017.2 1.2
23/04:37am 15.3 13.5 13.2 87 1.2 SSE 15 19 8 10 1019.3 1017.4 1.2
23/04:30am 15.3 13.5 13.2 87 1.2 SSE 15 19 8 10 1019.4 1017.5 1.2
23/04:00am 15.7 15.4 13.4 86 1.3 SE 7 11 4 6 1019.7 1017.8 1.0
23/03:30am 15.7 15.4 13.4 86 1.3 ESE 7 11 4 6 1019.4 1017.5 1.0
23/03:00am 15.8 15.1 13.3 85 1.4 SE 9 13 5 7 1019.6 1017.7 1.0
23/02:30am 15.9 14.9 13.4 85 1.4 SE 11 15 6 8 1019.5 1017.6 1.0
23/02:00am 16.0 15.0 13.5 85 1.4 SE 11 15 6 8 1019.5 1017.6 1.0
23/01:36am 16.0 14.7 13.7 86 1.3 SE 13 17 7 9 1019.5 1017.6 1.0
23/01:30am 16.1 14.8 13.8 86 1.3 SE 13 19 7 10 1019.5 1017.6 1.0
23/01:18am 16.0 14.7 13.8 87 1.3 SE 13 20 7 11 1019.5 1017.6 1.0
23/01:00am 16.1 14.9 13.9 87 1.3 SE 13 19 7 10 1019.6 1017.7 1.0
23/12:30am 16.2 14.6 13.9 86 1.3 SE 15 22 8 12 1019.9 1017.9 0.8
23/12:00am 16.2 14.2 14.0 87 1.3 SE 17 20 9 11 1019.9 1017.9 0.8
 
Date/Time
EDT
Temp
°C
App
Temp
°C
Dew
Point
°C
Rel
Hum
%
Delta-T
°C
Wind Press
QNH
hPa
Press
MSL
hPa
Rain since
9am
mm
Dir  Spd
km/h
Gust
km/h
Spd
kts
Gust
kts
22/11:30pm 16.3 13.8 14.0 86 1.3 SE 20 32 11 17 1020.0 1018.0 0.8
22/11:00pm 16.8 14.0 14.3 85 1.5 SE 22 32 12 17 1019.3 1017.4 0.8
22/10:30pm 17.5 15.6 15.3 87 1.3 ESE 19 28 10 15 1019.2 1017.2 0.8
22/10:00pm 17.8 16.0 15.6 87 1.3 SE 19 24 10 13 1018.8 1016.8 0.8
22/09:30pm 18.2 17.2 16.5 90 1.0 ESE 17 22 9 12 1017.8 1015.8 0.8
22/09:05pm 18.2 17.2 16.5 90 1.0 SE 17 22 9 12 1017.6 1015.6 0.8
22/09:00pm 18.1 17.0 16.3 89 1.1 SE 17 22 9 12 1017.5 1015.5 0.8
22/08:52pm 18.2 16.7 16.2 88 1.2 SE 19 24 10 13 1017.4 1015.4 0.6
22/08:30pm 18.8 16.9 16.6 87 1.4 SE 22 32 12 17 1017.2 1015.2 0.6
22/08:00pm 19.7 19.5 17.7 88 1.3 ESE 15 22 8 12 1017.0 1015.0 0.6
22/07:35pm 19.9 20.5 17.7 87 1.4 SE 11 15 6 8 1016.8 1014.8 0.6
22/07:30pm 19.8 20.3 17.4 86 1.5 SE 11 15 6 8 1016.6 1014.6 0.6
22/07:00pm 20.6 20.9 17.0 80 2.3 E 11 15 6 8 1016.0 1014.0 0.6
22/06:30pm 21.5 20.9 16.7 74 3.0 ESE 15 19 8 10 1015.8 1013.8 0.6
22/06:00pm 22.5 23.5 16.8 70 3.6 NE 7 11 4 6 1014.9 1012.8 0.6
22/05:30pm 22.8 23.9 17.0 70 3.7 ENE 7 13 4 7 1014.3 1012.3 0.4
22/05:00pm 21.6 22.4 17.2 76 2.8 WSW 9 13 5 7 1013.7 1011.6 0.4
22/04:30pm 21.2 20.3 17.8 81 2.2 SW 19 24 10 13 1013.6 1011.5 0.4
22/04:00pm 18.2 17.3 15.8 86 1.5 WSW 15 22 8 12 1014.5 1012.5 0.4
22/03:30pm 17.5 15.9 16.4 93 0.7 W 20 28 11 15 1016.0 1014.0 0.4
22/03:00pm 17.0 12.8 15.7 92 0.8 W 32 46 17 25 1016.2 1014.2 0.2
22/02:42pm 16.6 7.5 15.3 92 0.8 WNW 57 85 31 46 1016.0 1014.0 0.2
22/02:38pm 16.8 9.6 14.8 88 1.2 W 46 85 25 46 1016.0 1014.0 0.2
22/02:35pm 18.1 13.4 14.4 79 2.2 W 32 78 17 42 1015.2 1013.2 0.2
22/02:33pm 22.7 20.1 15.8 65 4.3 WSW 24 72 13 39 1015.3 1013.3 0.2

Other Formats:

Comma delimited format used in spreadsheet applications
http://www.bom.gov.au/fwo/IDN60801/IDN60801.95716.axf

JavaScript Object Notation format (JSON) in row-major order
http://www.bom.gov.au/fwo/IDN60801/IDN60801.95716.json